Uacc Marah — V7TP3 — position and weather

sailwx.info

Track history (hours):
 
Tides and Currents Weather Stations Pressure Air Temp Water Temp Dewpoint Dewpoint Depression Visibility Wind Speed Wind Dir Waves Ship Positions

Uacc Marah

Last reported at 2018-Feb-20 13:00 UTC. Time now 2018-Feb-22 01:23 UTC.
Position N 22°26' E 119°49'.

Length 183 m; draft 8.2 m.

Type: Ship (hazmat cat B). MMSI: 538003851.

Date/timePositionNaut miles runAvg speedWind from/ knotsBaromVisibWave heightAir tempDewpointWater temp
2018-Feb-20 13:00N 22°26' E 119°49'612.9
2018-Feb-20 12:30N 22°30' E 119°54'714.3
2018-Feb-20 11:59N 22°36' E 119°58'713.9
2018-Feb-20 11:30N 22°42' E 120°02'612.7
2018-Feb-20 11:00N 22°40' E 120°09'612.4
2018-Feb-20 10:30N 22°37' E 120°15'3 6.6
2018-Feb-20 10:00N 22°36' E 120°18'0 0.2
2018-Feb-20 09:30N 22°36' E 120°18'0 0.0
2018-Feb-20 09:00N 22°36' E 120°18'0 0.0
2018-Feb-20 08:30N 22°36' E 120°18'0 0.0
2018-Feb-20 08:00N 22°36' E 120°18'0 0.0
2018-Feb-20 07:30N 22°36' E 120°18'0 0.0
2018-Feb-20 07:01N 22°36' E 120°18'0 0.0
2018-Feb-20 06:30N 22°36' E 120°18'0 0.0
2018-Feb-20 06:00N 22°36' E 120°18'0 0.0
2018-Feb-20 05:30N 22°36' E 120°18'0 0.0
2018-Feb-20 05:00N 22°36' E 120°18'0 0.0
2018-Feb-20 04:30N 22°36' E 120°18'0 0.0
2018-Feb-20 04:00N 22°36' E 120°18'0 0.0
2018-Feb-20 03:30N 22°36' E 120°18'0 0.0
2018-Feb-20 03:00N 22°36' E 120°18'0 0.0
2018-Feb-20 02:31N 22°36' E 120°18'0 0.0
2018-Feb-20 02:00N 22°36' E 120°18'0 0.0
2018-Feb-20 01:30N 22°36' E 120°18'0 0.0
2018-Feb-20 01:01N 22°36' E 120°18'0 0.0
2018-Feb-20 00:31N 22°36' E 120°18'0 0.0
2018-Feb-20 00:01N 22°36' E 120°18'0 0.0
2018-Feb-19 23:31N 22°36' E 120°18'0 0.0
2018-Feb-19 23:00N 22°36' E 120°18'0 0.0
2018-Feb-19 22:30N 22°36' E 120°18'0 0.0
2018-Feb-19 22:00N 22°36' E 120°18'0 0.0
2018-Feb-19 21:30N 22°36' E 120°18'0 0.0
2018-Feb-19 21:00N 22°36' E 120°18'0 0.0
2018-Feb-19 20:30N 22°36' E 120°18'0 0.0
2018-Feb-19 20:00N 22°36' E 120°18'0 0.0
2018-Feb-19 19:30N 22°36' E 120°18'0 0.0
2018-Feb-19 19:00N 22°36' E 120°18'0 0.0
2018-Feb-19 18:30N 22°36' E 120°18'0 0.0
2018-Feb-19 18:01N 22°36' E 120°18'0 0.0
2018-Feb-19 17:31N 22°36' E 120°18'0 0.0
2018-Feb-19 17:00N 22°36' E 120°18'0 0.0
2018-Feb-19 16:30N 22°36' E 120°18'0 0.0
2018-Feb-19 16:00N 22°36' E 120°18'0 0.0
2018-Feb-19 15:30N 22°36' E 120°18'0 0.0
2018-Feb-19 15:00N 22°36' E 120°18'0 0.0
2018-Feb-19 14:30N 22°36' E 120°18'0 0.0
2018-Feb-19 13:59N 22°36' E 120°18'2 3.2
2018-Feb-19 13:30N 22°37' E 120°17'3 6.4
2018-Feb-19 13:00N 22°37' E 120°13'3 5.8
2018-Feb-19 12:30N 22°38' E 120°10'612.6
2018-Feb-19 12:00N 22°42' E 120°05'714.0
2018-Feb-19 11:29N 22°47' E 119°59'713.7
2018-Feb-19 11:00N 22°50' E 119°53'2913.9
2018-Feb-19 08:53N 23°19' E 119°52'614.7
2018-Feb-19 08:30N 23°25' E 119°53'714.4
2018-Feb-19 08:00N 23°32' E 119°55'713.9
2018-Feb-19 07:29N 23°39' E 119°56'612.9
2018-Feb-19 06:59N 23°42' E 120°02'814.5
2018-Feb-19 06:26N 23°47' E 120°10'1 0.2
2018-Feb-18 23:42N 23°48' E 120°11'0 0.0
2018-Feb-18 18:00N 23°48' E 120°11'0 0.0
2018-Feb-18 16:48N 23°48' E 120°11'0 0.0
2018-Feb-18 16:24N 23°48' E 120°11'0 0.0
2018-Feb-18 16:00N 23°48' E 120°11'0 0.0
2018-Feb-18 15:24N 23°48' E 120°11'0 0.0
2018-Feb-18 14:36N 23°48' E 120°11'0 0.0
2018-Feb-18 14:24N 23°48' E 120°11'0 0.0
2018-Feb-18 13:54N 23°48' E 120°11'0 0.0
2018-Feb-18 13:30N 23°48' E 120°11'0 0.0
2018-Feb-18 13:00N 23°48' E 120°11'0 0.0
2018-Feb-18 12:30N 23°48' E 120°11'0 0.0
2018-Feb-18 11:42N 23°48' E 120°11'0 0.0
2018-Feb-18 11:30N 23°48' E 120°11'0 0.0
2018-Feb-18 11:00N 23°48' E 120°11'0 0.0
2018-Feb-18 10:30N 23°48' E 120°11'0 0.0
2018-Feb-18 10:00N 23°48' E 120°11'0 0.0
2018-Feb-18 08:36N 23°48' E 120°11'0 0.0
2018-Feb-18 08:18N 23°48' E 120°11'0 0.0
2018-Feb-18 07:48N 23°48' E 120°11'0 0.0
2018-Feb-18 07:18N 23°48' E 120°11'0 0.0
2018-Feb-18 07:00N 23°48' E 120°11'  
2018-Feb-14 03:31N 23°47' E 120°04'0 0.1
2018-Feb-14 03:25N 23°47' E 120°04'0 0.0
2018-Feb-14 02:49N 23°47' E 120°04'0 0.1
2018-Feb-14 02:30N 23°47' E 120°04'1 2.4
2018-Feb-14 02:00N 23°46' E 120°03'2 4.6
2018-Feb-14 01:30N 23°44' E 120°02'3 3.8
2018-Feb-14 00:51N 23°44' E 119°59'310.1
2018-Feb-14 00:30N 23°48' E 119°58'510.3
2018-Feb-14 00:00N 23°53' E 119°58'611.0
2018-Feb-13 23:30N 23°58' E 120°00'611.4
2018-Feb-13 23:00N 24°04' E 120°02'911.6
2018-Feb-13 22:16N 24°12' E 120°04'411.9
2018-Feb-13 21:56N 24°16' E 120°05'912.4
2018-Feb-13 21:12N 24°24' E 120°08'6511.9
2018-Feb-13 15:45N 25°17' E 120°50'312.1
2018-Feb-13 15:30N 25°18' E 120°53'712.5
2018-Feb-13 14:57N 25°19' E 121°01'612.7
2018-Feb-13 14:30N 25°20' E 121°07'613.0
2018-Feb-13 14:00N 25°21' E 121°14'713.8
2018-Feb-13 13:30N 25°22' E 121°22'814.7
2018-Feb-13 12:56N 25°22' E 121°31'715.0
2018-Feb-13 12:30N 25°22' E 121°38'714.7
2018-Feb-13 12:00N 25°16' E 121°43'612.0
2018-Feb-13 11:30N 25°10' E 121°45'2 0.3
2018-Feb-13 05:30N 25°08' E 121°45'0 0.0
2018-Feb-13 05:00N 25°08' E 121°45'0 0.0
2018-Feb-13 04:30N 25°08' E 121°45'0 0.0
2018-Feb-13 04:00N 25°09' E 121°45'0 0.0
2018-Feb-13 03:30N 25°09' E 121°45'0 0.0
2018-Feb-13 03:00N 25°08' E 121°45'0 0.0
2018-Feb-13 02:30N 25°08' E 121°45'0 0.0
2018-Feb-13 02:00N 25°08' E 121°45'0 0.0
2018-Feb-13 01:24N 25°08' E 121°45'0 0.0
2018-Feb-13 01:00N 25°08' E 121°45'0 0.0
2018-Feb-13 00:30N 25°08' E 121°45'0 0.0
2018-Feb-13 00:00N 25°08' E 121°45'0 0.0
2018-Feb-12 23:30N 25°08' E 121°45'0 0.0
2018-Feb-12 23:00N 25°08' E 121°45'0 0.0
2018-Feb-12 22:30N 25°08' E 121°45'0 0.0
2018-Feb-12 22:00N 25°08' E 121°45'0 0.0
2018-Feb-12 21:30N 25°08' E 121°45'0 0.0
2018-Feb-12 21:00N 25°08' E 121°45'0 0.0
2018-Feb-12 20:30N 25°08' E 121°45'0 0.0
2018-Feb-12 20:00N 25°08' E 121°45'0 0.0
2018-Feb-12 19:30N 25°08' E 121°45'0 0.0
2018-Feb-12 19:00N 25°08' E 121°45'0 0.0
2018-Feb-12 18:30N 25°08' E 121°45'0 0.0
2018-Feb-12 18:00N 25°08' E 121°45'0 0.0
2018-Feb-12 17:30N 25°08' E 121°45'0 0.0
2018-Feb-12 16:51N 25°08' E 121°45'0 0.0
2018-Feb-12 16:30N 25°08' E 121°45'0 0.0
2018-Feb-12 16:00N 25°08' E 121°45'0 0.0
2018-Feb-12 15:15N 25°08' E 121°45'0 0.0
2018-Feb-12 15:00N 25°08' E 121°45'0 0.0
2018-Feb-12 14:30N 25°08' E 121°45'0 0.0
2018-Feb-12 14:00N 25°08' E 121°45'0 0.0
2018-Feb-12 13:30N 25°08' E 121°45'0 0.0
2018-Feb-12 13:00N 25°08' E 121°45'0 0.0
2018-Feb-12 12:30N 25°08' E 121°45'0 0.9
2018-Feb-12 12:00N 25°09' E 121°45'1 1.0
2018-Feb-12 11:30N 25°09' E 121°45'0 0.0
2018-Feb-12 10:57N 25°09' E 121°45'0 0.0
2018-Feb-12 10:27N 25°09' E 121°45'0 0.0
2018-Feb-12 09:57N 25°09' E 121°45'0 0.0
2018-Feb-12 09:27N 25°09' E 121°45'0 0.0
2018-Feb-12 08:57N 25°09' E 121°45'0 0.0
2018-Feb-12 08:27N 25°09' E 121°45'0 0.0
2018-Feb-12 07:57N 25°09' E 121°45'0 0.0
2018-Feb-12 07:27N 25°09' E 121°45'0 0.0
2018-Feb-12 06:57N 25°09' E 121°45'0 0.0
2018-Feb-12 06:15N 25°09' E 121°45'0 0.0
2018-Feb-12 05:57N 25°09' E 121°45'0 0.0
2018-Feb-12 05:27N 25°09' E 121°45'0 0.0
2018-Feb-12 04:57N 25°09' E 121°45'0 0.0
2018-Feb-12 04:27N 25°09' E 121°45'0 0.0
2018-Feb-12 02:27N 25°09' E 121°45'0 0.0
2018-Feb-12 01:57N 25°09' E 121°45'0 0.0
2018-Feb-12 01:27N 25°09' E 121°45'0 0.0
2018-Feb-12 00:57N 25°09' E 121°45'0 0.0
2018-Feb-12 00:27N 25°09' E 121°45'0 0.0
2018-Feb-11 23:51N 25°09' E 121°45'0 0.0
2018-Feb-11 23:27N 25°09' E 121°45'0 0.0
2018-Feb-11 22:57N 25°09' E 121°45'0 0.0
2018-Feb-11 22:27N 25°09' E 121°45'0 0.0
2018-Feb-11 21:57N 25°09' E 121°45'0 0.0
2018-Feb-11 21:27N 25°09' E 121°45'0 0.0
2018-Feb-11 20:57N 25°09' E 121°45'0 0.0
2018-Feb-11 20:27N 25°09' E 121°45'0 0.0
2018-Feb-11 19:57N 25°09' E 121°45'0 0.0
2018-Feb-11 19:27N 25°09' E 121°45'0 0.0
2018-Feb-11 18:57N 25°09' E 121°45'0 0.0
2018-Feb-11 18:27N 25°09' E 121°45'0 0.0
2018-Feb-11 17:57N 25°09' E 121°45'0 0.0
2018-Feb-11 17:27N 25°09' E 121°45'0 0.0
2018-Feb-11 16:57N 25°09' E 121°45'0 0.0
2018-Feb-11 16:27N 25°09' E 121°45'0 0.0
2018-Feb-11 15:57N 25°09' E 121°45'0 0.0
2018-Feb-11 15:27N 25°09' E 121°45'0 0.0
2018-Feb-11 14:57N 25°09' E 121°45'0 0.0
2018-Feb-11 14:27N 25°09' E 121°45'0 0.0
2018-Feb-11 13:57N 25°09' E 121°45'0 0.0
2018-Feb-11 13:27N 25°09' E 121°45'0 0.1
2018-Feb-11 13:01N 25°09' E 121°45'2 3.1
2018-Feb-11 12:30N 25°11' E 121°45'4 7.2
2018-Feb-11 12:00N 25°14' E 121°45'4 7.2
2018-Feb-11 11:30N 25°18' E 121°44'5 9.2
2018-Feb-11 11:00N 25°20' E 121°39'18 8.4
2018-Feb-11 08:50N 25°21' E 121°19'3 8.4
2018-Feb-11 08:27N 25°19' E 121°16'4 8.7
2018-Feb-11 08:00N 25°18' E 121°12'4 9.0
2018-Feb-11 07:30N 25°16' E 121°07'5 9.1
2018-Feb-11 07:00N 25°14' E 121°03'  
Track history (hours):
 
Tides and Currents Weather Stations Pressure Air Temp Water Temp Dewpoint Dewpoint Depression Visibility Wind Speed Wind Dir Waves Ship Positions

Uacc Marah

Last reported at 2018-Feb-20 13:00 UTC. Time now 2018-Feb-22 01:23 UTC.
Position N 22°26' E 119°49'.

Length 183 m; draft 8.2 m.

Type: Ship (hazmat cat B). MMSI: 538003851.

Date/timePositionNaut miles runAvg speedWind from/ knotsBaromVisibWave heightAir tempDewpointWater temp
2018-Feb-20 13:00N 22°26' E 119°49'612.9
2018-Feb-20 12:30N 22°30' E 119°54'714.3
2018-Feb-20 11:59N 22°36' E 119°58'713.9
2018-Feb-20 11:30N 22°42' E 120°02'612.7
2018-Feb-20 11:00N 22°40' E 120°09'612.4
2018-Feb-20 10:30N 22°37' E 120°15'3 6.6
2018-Feb-20 10:00N 22°36' E 120°18'0 0.2
2018-Feb-20 09:30N 22°36' E 120°18'0 0.0
2018-Feb-20 09:00N 22°36' E 120°18'0 0.0
2018-Feb-20 08:30N 22°36' E 120°18'0 0.0
2018-Feb-20 08:00N 22°36' E 120°18'0 0.0
2018-Feb-20 07:30N 22°36' E 120°18'0 0.0
2018-Feb-20 07:01N 22°36' E 120°18'0 0.0
2018-Feb-20 06:30N 22°36' E 120°18'0 0.0
2018-Feb-20 06:00N 22°36' E 120°18'0 0.0
2018-Feb-20 05:30N 22°36' E 120°18'0 0.0
2018-Feb-20 05:00N 22°36' E 120°18'0 0.0
2018-Feb-20 04:30N 22°36' E 120°18'0 0.0
2018-Feb-20 04:00N 22°36' E 120°18'0 0.0
2018-Feb-20 03:30N 22°36' E 120°18'0 0.0
2018-Feb-20 03:00N 22°36' E 120°18'0 0.0
2018-Feb-20 02:31N 22°36' E 120°18'0 0.0
2018-Feb-20 02:00N 22°36' E 120°18'0 0.0
2018-Feb-20 01:30N 22°36' E 120°18'0 0.0
2018-Feb-20 01:01N 22°36' E 120°18'0 0.0
2018-Feb-20 00:31N 22°36' E 120°18'0 0.0
2018-Feb-20 00:01N 22°36' E 120°18'0 0.0
2018-Feb-19 23:31N 22°36' E 120°18'0 0.0
2018-Feb-19 23:00N 22°36' E 120°18'0 0.0
2018-Feb-19 22:30N 22°36' E 120°18'0 0.0
2018-Feb-19 22:00N 22°36' E 120°18'0 0.0
2018-Feb-19 21:30N 22°36' E 120°18'0 0.0
2018-Feb-19 21:00N 22°36' E 120°18'0 0.0
2018-Feb-19 20:30N 22°36' E 120°18'0 0.0
2018-Feb-19 20:00N 22°36' E 120°18'0 0.0
2018-Feb-19 19:30N 22°36' E 120°18'0 0.0
2018-Feb-19 19:00N 22°36' E 120°18'0 0.0
2018-Feb-19 18:30N 22°36' E 120°18'0 0.0
2018-Feb-19 18:01N 22°36' E 120°18'0 0.0
2018-Feb-19 17:31N 22°36' E 120°18'0 0.0
2018-Feb-19 17:00N 22°36' E 120°18'0 0.0
2018-Feb-19 16:30N 22°36' E 120°18'0 0.0
2018-Feb-19 16:00N 22°36' E 120°18'0 0.0
2018-Feb-19 15:30N 22°36' E 120°18'0 0.0
2018-Feb-19 15:00N 22°36' E 120°18'0 0.0
2018-Feb-19 14:30N 22°36' E 120°18'0 0.0
2018-Feb-19 13:59N 22°36' E 120°18'2 3.2
2018-Feb-19 13:30N 22°37' E 120°17'3 6.4
2018-Feb-19 13:00N 22°37' E 120°13'3 5.8
2018-Feb-19 12:30N 22°38' E 120°10'612.6
2018-Feb-19 12:00N 22°42' E 120°05'714.0
2018-Feb-19 11:29N 22°47' E 119°59'713.7
2018-Feb-19 11:00N 22°50' E 119°53'2913.9
2018-Feb-19 08:53N 23°19' E 119°52'614.7
2018-Feb-19 08:30N 23°25' E 119°53'714.4
2018-Feb-19 08:00N 23°32' E 119°55'713.9
2018-Feb-19 07:29N 23°39' E 119°56'612.9
2018-Feb-19 06:59N 23°42' E 120°02'814.5
2018-Feb-19 06:26N 23°47' E 120°10'1 0.2
2018-Feb-18 23:42N 23°48' E 120°11'0 0.0
2018-Feb-18 18:00N 23°48' E 120°11'0 0.0
2018-Feb-18 16:48N 23°48' E 120°11'0 0.0
2018-Feb-18 16:24N 23°48' E 120°11'0 0.0
2018-Feb-18 16:00N 23°48' E 120°11'0 0.0
2018-Feb-18 15:24N 23°48' E 120°11'0 0.0
2018-Feb-18 14:36N 23°48' E 120°11'0 0.0
2018-Feb-18 14:24N 23°48' E 120°11'0 0.0
2018-Feb-18 13:54N 23°48' E 120°11'0 0.0
2018-Feb-18 13:30N 23°48' E 120°11'0 0.0
2018-Feb-18 13:00N 23°48' E 120°11'0 0.0
2018-Feb-18 12:30N 23°48' E 120°11'0 0.0
2018-Feb-18 11:42N 23°48' E 120°11'0 0.0
2018-Feb-18 11:30N 23°48' E 120°11'0 0.0
2018-Feb-18 11:00N 23°48' E 120°11'0 0.0
2018-Feb-18 10:30N 23°48' E 120°11'0 0.0
2018-Feb-18 10:00N 23°48' E 120°11'0 0.0
2018-Feb-18 08:36N 23°48' E 120°11'0 0.0
2018-Feb-18 08:18N 23°48' E 120°11'0 0.0
2018-Feb-18 07:48N 23°48' E 120°11'0 0.0
2018-Feb-18 07:18N 23°48' E 120°11'0 0.0
2018-Feb-18 07:00N 23°48' E 120°11'  
2018-Feb-14 03:31N 23°47' E 120°04'0 0.1
2018-Feb-14 03:25N 23°47' E 120°04'0 0.0
2018-Feb-14 02:49N 23°47' E 120°04'0 0.1
2018-Feb-14 02:30N 23°47' E 120°04'1 2.4
2018-Feb-14 02:00N 23°46' E 120°03'2 4.6
2018-Feb-14 01:30N 23°44' E 120°02'3 3.8
2018-Feb-14 00:51N 23°44' E 119°59'310.1
2018-Feb-14 00:30N 23°48' E 119°58'510.3
2018-Feb-14 00:00N 23°53' E 119°58'611.0
2018-Feb-13 23:30N 23°58' E 120°00'611.4
2018-Feb-13 23:00N 24°04' E 120°02'911.6
2018-Feb-13 22:16N 24°12' E 120°04'411.9
2018-Feb-13 21:56N 24°16' E 120°05'912.4
2018-Feb-13 21:12N 24°24' E 120°08'6511.9
2018-Feb-13 15:45N 25°17' E 120°50'312.1
2018-Feb-13 15:30N 25°18' E 120°53'712.5
2018-Feb-13 14:57N 25°19' E 121°01'612.7
2018-Feb-13 14:30N 25°20' E 121°07'613.0
2018-Feb-13 14:00N 25°21' E 121°14'713.8
2018-Feb-13 13:30N 25°22' E 121°22'814.7
2018-Feb-13 12:56N 25°22' E 121°31'715.0
2018-Feb-13 12:30N 25°22' E 121°38'714.7
2018-Feb-13 12:00N 25°16' E 121°43'612.0
2018-Feb-13 11:30N 25°10' E 121°45'2 0.3
2018-Feb-13 05:30N 25°08' E 121°45'0 0.0
2018-Feb-13 05:00N 25°08' E 121°45'0 0.0
2018-Feb-13 04:30N 25°08' E 121°45'0 0.0
2018-Feb-13 04:00N 25°09' E 121°45'0 0.0
2018-Feb-13 03:30N 25°09' E 121°45'0 0.0
2018-Feb-13 03:00N 25°08' E 121°45'0 0.0
2018-Feb-13 02:30N 25°08' E 121°45'0 0.0
2018-Feb-13 02:00N 25°08' E 121°45'0 0.0
2018-Feb-13 01:24N 25°08' E 121°45'0 0.0
2018-Feb-13 01:00N 25°08' E 121°45'0 0.0
2018-Feb-13 00:30N 25°08' E 121°45'0 0.0
2018-Feb-13 00:00N 25°08' E 121°45'0 0.0
2018-Feb-12 23:30N 25°08' E 121°45'0 0.0
2018-Feb-12 23:00N 25°08' E 121°45'0 0.0
2018-Feb-12 22:30N 25°08' E 121°45'0 0.0
2018-Feb-12 22:00N 25°08' E 121°45'0 0.0
2018-Feb-12 21:30N 25°08' E 121°45'0 0.0
2018-Feb-12 21:00N 25°08' E 121°45'0 0.0
2018-Feb-12 20:30N 25°08' E 121°45'0 0.0
2018-Feb-12 20:00N 25°08' E 121°45'0 0.0
2018-Feb-12 19:30N 25°08' E 121°45'0 0.0
2018-Feb-12 19:00N 25°08' E 121°45'0 0.0
2018-Feb-12 18:30N 25°08' E 121°45'0 0.0
2018-Feb-12 18:00N 25°08' E 121°45'0 0.0
2018-Feb-12 17:30N 25°08' E 121°45'0 0.0
2018-Feb-12 16:51N 25°08' E 121°45'0 0.0
2018-Feb-12 16:30N 25°08' E 121°45'0 0.0
2018-Feb-12 16:00N 25°08' E 121°45'0 0.0
2018-Feb-12 15:15N 25°08' E 121°45'0 0.0
2018-Feb-12 15:00N 25°08' E 121°45'0 0.0
2018-Feb-12 14:30N 25°08' E 121°45'0 0.0
2018-Feb-12 14:00N 25°08' E 121°45'0 0.0
2018-Feb-12 13:30N 25°08' E 121°45'0 0.0
2018-Feb-12 13:00N 25°08' E 121°45'0 0.0
2018-Feb-12 12:30N 25°08' E 121°45'0 0.9
2018-Feb-12 12:00N 25°09' E 121°45'1 1.0
2018-Feb-12 11:30N 25°09' E 121°45'0 0.0
2018-Feb-12 10:57N 25°09' E 121°45'0 0.0
2018-Feb-12 10:27N 25°09' E 121°45'0 0.0
2018-Feb-12 09:57N 25°09' E 121°45'0 0.0
2018-Feb-12 09:27N 25°09' E 121°45'0 0.0
2018-Feb-12 08:57N 25°09' E 121°45'0 0.0
2018-Feb-12 08:27N 25°09' E 121°45'0 0.0
2018-Feb-12 07:57N 25°09' E 121°45'0 0.0
2018-Feb-12 07:27N 25°09' E 121°45'0 0.0
2018-Feb-12 06:57N 25°09' E 121°45'0 0.0
2018-Feb-12 06:15N 25°09' E 121°45'0 0.0
2018-Feb-12 05:57N 25°09' E 121°45'0 0.0
2018-Feb-12 05:27N 25°09' E 121°45'0 0.0
2018-Feb-12 04:57N 25°09' E 121°45'0 0.0
2018-Feb-12 04:27N 25°09' E 121°45'0 0.0
2018-Feb-12 02:27N 25°09' E 121°45'0 0.0
2018-Feb-12 01:57N 25°09' E 121°45'0 0.0
2018-Feb-12 01:27N 25°09' E 121°45'0 0.0
2018-Feb-12 00:57N 25°09' E 121°45'0 0.0
2018-Feb-12 00:27N 25°09' E 121°45'0 0.0
2018-Feb-11 23:51N 25°09' E 121°45'0 0.0
2018-Feb-11 23:27N 25°09' E 121°45'0 0.0
2018-Feb-11 22:57N 25°09' E 121°45'0 0.0
2018-Feb-11 22:27N 25°09' E 121°45'0 0.0
2018-Feb-11 21:57N 25°09' E 121°45'0 0.0
2018-Feb-11 21:27N 25°09' E 121°45'0 0.0
2018-Feb-11 20:57N 25°09' E 121°45'0 0.0
2018-Feb-11 20:27N 25°09' E 121°45'0 0.0
2018-Feb-11 19:57N 25°09' E 121°45'0 0.0
2018-Feb-11 19:27N 25°09' E 121°45'0 0.0
2018-Feb-11 18:57N 25°09' E 121°45'0 0.0
2018-Feb-11 18:27N 25°09' E 121°45'0 0.0
2018-Feb-11 17:57N 25°09' E 121°45'0 0.0
2018-Feb-11 17:27N 25°09' E 121°45'0 0.0
2018-Feb-11 16:57N 25°09' E 121°45'0 0.0
2018-Feb-11 16:27N 25°09' E 121°45'0 0.0
2018-Feb-11 15:57N 25°09' E 121°45'0 0.0
2018-Feb-11 15:27N 25°09' E 121°45'0 0.0
2018-Feb-11 14:57N 25°09' E 121°45'0 0.0
2018-Feb-11 14:27N 25°09' E 121°45'0 0.0
2018-Feb-11 13:57N 25°09' E 121°45'0 0.0
2018-Feb-11 13:27N 25°09' E 121°45'0 0.1
2018-Feb-11 13:01N 25°09' E 121°45'2 3.1
2018-Feb-11 12:30N 25°11' E 121°45'4 7.2
2018-Feb-11 12:00N 25°14' E 121°45'4 7.2
2018-Feb-11 11:30N 25°18' E 121°44'5 9.2
2018-Feb-11 11:00N 25°20' E 121°39'18 8.4
2018-Feb-11 08:50N 25°21' E 121°19'3 8.4
2018-Feb-11 08:27N 25°19' E 121°16'4 8.7
2018-Feb-11 08:00N 25°18' E 121°12'4 9.0
2018-Feb-11 07:30N 25°16' E 121°07'5 9.1
2018-Feb-11 07:00N 25°14' E 121°03'  

Dump ship's entire track history